Time;durP1;ratioP1;P1;durP2;ratioP2;P2;SDS_P1;SDS_P2;PMS_P1;PMS_P2;Temp;Humidity;BMP_temperature;BMP_pressure;BME280_temperature;BME280_humidity;BME280_pressure;Samples;Min_cycle;Max_cycle;Signal;HPM_P1;HPM_P2
2022/12/27 00:00:08;;;;;;;18.83;11.90;;;;;;;7.72;80.41;98380.59;4990865;28;20106;-68
2022/12/27 00:02:37;;;;;;;14.48;9.30;;;;;;;7.72;79.88;98372.41;4986326;28;20023;-68
2022/12/27 00:05:04;;;;;;;15.23;8.77;;;;;;;7.74;80.07;98383.84;4977664;28;20030;-68
2022/12/27 00:07:29;;;;;;;14.88;9.02;;;;;;;7.75;80.13;98379.19;4985162;28;20580;-69
2022/12/27 00:09:54;;;;;;;15.95;9.32;;;;;;;7.76;79.89;98378.09;5006408;28;20048;-68
2022/12/27 00:12:20;;;;;;;13.32;8.82;;;;;;;7.76;79.73;98378.09;4978403;28;20034;-68
2022/12/27 00:14:45;;;;;;;15.98;9.75;;;;;;;7.78;80.11;98370.44;4997187;28;20030;-68
2022/12/27 00:17:10;;;;;;;15.50;9.32;;;;;;;7.79;80.06;98369.34;4986446;28;20099;-68
2022/12/27 00:19:36;;;;;;;14.30;9.15;;;;;;;7.79;79.58;98357.63;5002091;28;20034;-68
2022/12/27 00:22:01;;;;;;;15.30;9.57;;;;;;;7.77;79.40;98346.97;5002337;28;20461;-68
2022/12/27 00:24:27;;;;;;;15.73;9.20;;;;;;;7.76;79.89;98331.69;4999545;28;20115;-68
2022/12/27 00:26:52;;;;;;;14.07;9.27;;;;;;;7.75;79.43;98325.44;5019719;28;20035;-68
2022/12/27 00:29:17;;;;;;;15.38;9.90;;;;;;;7.76;79.60;98331.69;4979177;28;20493;-68
2022/12/27 00:31:43;;;;;;;13.38;8.98;;;;;;;7.76;79.55;98328.97;4991837;28;20623;-68
2022/12/27 00:34:09;;;;;;;15.48;9.48;;;;;;;7.77;79.37;98336.06;4995701;28;20027;-69
2022/12/27 00:36:34;;;;;;;15.70;9.70;;;;;;;7.77;79.57;98336.06;4994567;28;20084;-68
2022/12/27 00:39:00;;;;;;;16.13;9.23;;;;;;;7.77;79.13;98338.78;4986301;28;20017;-69
2022/12/27 00:41:27;;;;;;;14.40;9.48;;;;;;;7.77;79.34;98343.44;4978278;28;20037;-69
2022/12/27 00:43:52;;;;;;;14.15;9.30;;;;;;;7.77;79.74;98351.63;4985710;28;20060;-68
2022/12/27 00:46:18;;;;;;;18.55;10.45;;;;;;;7.75;79.69;98357.34;4990882;28;20038;-68
2022/12/27 00:48:43;;;;;;;17.55;10.13;;;;;;;7.74;79.31;98353.81;4992845;28;20031;-69
2022/12/27 00:51:18;;;;;;;19.58;10.80;;;;;;;7.74;79.15;98348.38;5011952;28;20391;-69
2022/12/27 00:53:44;;;;;;;15.30;10.15;;;;;;;7.76;79.32;98345.34;4992258;28;20887;-69
2022/12/27 00:56:15;;;;;;;16.63;10.30;;;;;;;7.78;79.79;98353.28;4991488;28;20043;-69
2022/12/27 00:58:41;;;;;;;15.00;9.63;;;;;;;7.79;79.25;98346.72;4990094;28;20020;-69
2022/12/27 01:01:16;;;;;;;22.33;11.70;;;;;;;7.80;79.88;98345.63;5004406;28;20035;-69
2022/12/27 01:03:41;;;;;;;19.15;11.02;;;;;;;7.80;79.45;98349.16;4989706;28;20078;-69
2022/12/27 01:06:12;;;;;;;18.92;11.27;;;;;;;7.78;79.60;98356.00;4985898;28;20496;-69
2022/12/27 01:08:38;;;;;;;14.07;9.88;;;;;;;7.79;79.84;98360.38;5003363;28;20029;-70
2022/12/27 01:11:04;;;;;;;13.48;9.52;;;;;;;7.79;79.68;98358.44;5021457;28;20080;-69
2022/12/27 01:13:30;;;;;;;14.15;9.20;;;;;;;7.80;79.27;98351.06;5016054;28;20024;-69
2022/12/27 01:15:55;;;;;;;12.10;8.23;;;;;;;7.79;79.41;98354.91;5029890;28;20496;-69
2022/12/27 01:18:21;;;;;;;12.15;8.43;;;;;;;7.81;79.52;98371.81;5027053;28;20145;-69
2022/12/27 01:20:47;;;;;;;12.50;7.75;;;;;;;7.83;79.74;98380.56;4995699;28;20029;-70
2022/12/27 01:23:12;;;;;;;10.65;7.50;;;;;;;7.85;79.38;98397.47;4989823;28;20027;-69
2022/12/27 01:25:37;;;;;;;11.65;7.97;;;;;;;7.86;79.67;98394.44;5034489;28;20498;-68
2022/12/27 01:28:03;;;;;;;11.82;7.57;;;;;;;7.85;79.16;98398.28;5021770;28;20035;-69
2022/12/27 01:30:30;;;;;;;10.98;7.47;;;;;;;7.87;79.45;98407.00;5041671;28;20055;-69
2022/12/27 01:32:55;;;;;;;13.95;8.02;;;;;;;7.90;79.75;98408.38;4984543;28;20110;-69
2022/12/27 01:35:21;;;;;;;11.18;7.80;;;;;;;7.91;79.29;98412.75;5003614;28;20113;-68
2022/12/27 01:37:46;;;;;;;14.43;7.47;;;;;;;7.92;79.48;98419.84;4999243;28;20035;-69
2022/12/27 01:40:13;;;;;;;12.77;7.88;;;;;;;7.95;79.30;98429.38;5019013;28;20037;-68
2022/12/27 01:42:51;;;;;;;14.65;8.23;;;;;;;7.97;79.03;98440.84;5024493;28;20036;-68
2022/12/27 01:45:27;;;;;;;12.48;7.28;;;;;;;7.94;79.11;98452.31;4994270;28;20030;-69
2022/12/27 01:48:16;;;;;;;12.60;6.82;;;;;;;7.90;79.09;98443.88;5007568;28;20024;-68
2022/12/27 01:50:54;;;;;;;10.98;7.10;;;;;;;7.88;78.91;98448.81;5011074;28;20042;-69
2022/12/27 01:53:27;;;;;;;10.52;7.35;;;;;;;7.85;79.55;98454.81;5031555;28;20049;-68
2022/12/27 01:56:00;;;;;;;10.70;7.00;;;;;;;7.81;79.54;98457.28;4987605;28;20031;-68
2022/12/27 01:58:54;;;;;;;8.70;5.95;;;;;;;7.79;79.18;98458.66;5012755;28;20054;-68
2022/12/27 02:01:27;;;;;;;10.15;6.95;;;;;;;7.78;79.05;98465.22;4983222;28;20047;-68
2022/12/27 02:04:00;;;;;;;9.20;6.35;;;;;;;7.77;79.45;98458.09;4982719;28;20050;-68
2022/12/27 02:06:30;;;;;;;9.65;6.30;;;;;;;7.77;79.64;98458.91;5035947;28;20070;-67
2022/12/27 02:09:18;;;;;;;10.18;6.57;;;;;;;7.76;79.54;98465.47;4998593;28;20060;-66
2022/12/27 02:11:52;;;;;;;9.52;6.40;;;;;;;7.76;79.12;98473.66;5027550;28;20491;-67
2022/12/27 02:14:28;;;;;;;10.52;6.25;;;;;;;7.75;79.44;98469.28;5009936;28;20031;-66
2022/12/27 02:16:59;;;;;;;8.45;6.05;;;;;;;7.74;79.45;98464.97;5026697;28;20074;-66
2022/12/27 02:19:39;;;;;;;9.95;6.22;;;;;;;7.74;79.55;98468.50;5043264;28;20393;-67
2022/12/27 02:24:01;;;;;;;9.75;6.38;;;;;;;7.73;79.71;98476.97;5010791;28;20385;-67
2022/12/27 02:25:20;;;;;;;9.30;6.25;;;;;;;7.75;79.38;98480.22;5003522;28;20046;-67
2022/12/27 02:27:58;;;;;;;8.65;5.85;;;;;;;7.74;79.36;98473.16;5030500;28;20028;-67
2022/12/27 02:30:23;;;;;;;9.10;5.93;;;;;;;7.76;79.83;98487.31;5029246;28;20064;-67
2022/12/27 02:33:01;;;;;;;10.32;6.05;;;;;;;7.75;79.84;98485.69;5012648;28;20025;-67
2022/12/27 02:35:31;;;;;;;9.32;6.35;;;;;;;7.75;79.40;98488.41;5008855;28;20157;-67
2022/12/27 02:38:14;;;;;;;;;;;;;;;7.77;79.36;98482.69;5019993;28;20108;-67
2022/12/27 02:55:09;;;;;;;6.53;4.15;;;;;;;7.74;79.89;98500.44;5006621;28;20056;-67
2022/12/27 02:57:46;;;;;;;4.43;3.13;;;;;;;7.77;79.98;98504.53;5030870;28;20081;-67
2022/12/27 03:03:19;;;;;;;5.55;3.53;;;;;;;7.81;80.03;98513.81;5028453;28;20511;-67
2022/12/27 03:09:07;;;;;;;4.97;3.22;;;;;;;7.85;79.54;98536.72;5001459;28;20395;-67
2022/12/27 03:17:35;;;;;;;9.85;3.58;;;;;;;7.73;79.62;98543.28;5002589;28;20055;-67
2022/12/27 03:25:41;;;;;;;5.93;3.20;;;;;;;7.63;79.95;98565.13;5021987;28;20047;-67
2022/12/27 03:34:30;;;;;;;2.65;1.88;;;;;;;7.39;79.58;98568.44;5001555;28;20130;-67
2022/12/27 03:39:36;;;;;;;1.85;1.10;;;;;;;7.12;79.61;98585.88;5042992;28;20109;-67
2022/12/27 03:44:56;;;;;;;2.72;0.88;;;;;;;6.89;79.63;98606.28;5007977;28;20403;-67
2022/12/27 03:47:46;;;;;;;0.77;0.63;;;;;;;6.74;79.23;98634.28;5014895;28;20039;-67
2022/12/27 03:50:36;;;;;;;1.17;0.80;;;;;;;6.61;78.89;98662.03;5010108;28;20067;-68
2022/12/27 03:53:13;;;;;;;0.82;0.60;;;;;;;6.36;78.89;98660.81;4998842;28;20036;-67
2022/12/27 03:55:38;;;;;;;1.10;0.60;;;;;;;6.13;78.68;98672.91;4979129;28;20034;-68
2022/12/27 03:58:04;;;;;;;1.27;0.73;;;;;;;5.92;78.50;98673.53;5016084;28;20027;-67
2022/12/27 04:00:29;;;;;;;2.30;0.85;;;;;;;5.75;78.96;98675.59;5011366;28;20035;-67
2022/12/27 04:02:55;;;;;;;1.23;0.80;;;;;;;5.62;78.94;98671.41;5009274;28;20101;-67
2022/12/27 04:05:21;;;;;;;1.40;0.77;;;;;;;5.53;79.44;98672.94;5038567;28;20041;-67
2022/12/27 04:35:06;;;;;;;2.83;2.38;;;;;;;4.84;80.59;98724.13;5031518;28;20048;-67
2022/12/27 04:37:32;;;;;;;2.70;2.13;;;;;;;4.79;80.16;98715.91;5017519;28;20032;-67
2022/12/27 04:56:27;;;;;;;1.48;1.30;;;;;;;4.54;80.29;98753.34;4995940;28;20486;-67
2022/12/27 05:04:20;;;;;;;70.03;21.77;;;;;;;4.37;80.77;98772.38;5039629;28;20096;-68
2022/12/27 05:06:46;;;;;;;9.60;4.53;;;;;;;4.33;80.16;98784.78;5034017;28;20137;-67
2022/12/27 05:14:44;;;;;;;14.75;5.82;;;;;;;4.29;80.58;98784.47;4988597;28;20486;-68
2022/12/27 05:17:09;;;;;;;6.38;2.95;;;;;;;4.28;81.37;98792.88;5010609;28;20063;-67
2022/12/27 05:19:34;;;;;;;11.57;3.65;;;;;;;4.27;80.97;98791.22;5023463;28;20062;-67
2022/12/27 05:27:28;;;;;;;9.75;3.60;;;;;;;4.18;81.16;98798.94;5033218;28;20056;-67
2022/12/27 05:29:53;;;;;;;4.30;1.85;;;;;;;4.12;81.12;98800.75;5018784;28;20028;-66
2022/12/27 05:32:18;;;;;;;3.35;1.92;;;;;;;4.08;81.48;98813.16;4987200;28;20069;-68
2022/12/27 05:34:44;;;;;;;4.90;2.40;;;;;;;4.07;81.37;98821.56;5010484;28;20040;-66
2022/12/27 05:37:09;;;;;;;5.00;2.22;;;;;;;4.03;81.18;98823.94;5005044;28;20025;-67
2022/12/27 05:39:34;;;;;;;4.10;2.30;;;;;;;4.01;81.60;98820.63;5026289;28;20035;-67
2022/12/27 05:42:00;;;;;;;8.40;3.28;;;;;;;3.98;81.58;98821.13;5001932;28;20043;-67
2022/12/27 05:44:25;;;;;;;9.20;3.20;;;;;;;4.02;81.66;98830.44;4971737;28;20531;-68
2022/12/27 05:46:53;;;;;;;3.65;2.15;;;;;;;4.01;80.77;98835.03;5009263;28;20047;-67
2022/12/27 05:49:18;;;;;;;8.40;3.85;;;;;;;4.03;80.73;98837.50;5012959;28;20475;-67
2022/12/27 05:51:43;;;;;;;7.35;3.10;;;;;;;4.05;80.86;98856.28;4987644;28;20027;-67
2022/12/27 05:54:09;;;;;;;7.07;3.60;;;;;;;4.08;80.74;98864.75;4978402;28;20078;-67
2022/12/27 05:56:36;;;;;;;7.22;3.33;;;;;;;4.10;81.46;98873.47;4998751;28;20053;-67
2022/12/27 05:59:02;;;;;;;5.82;2.88;;;;;;;4.10;81.24;98883.47;5011549;28;20122;-66
2022/12/27 06:01:27;;;;;;;6.78;3.03;;;;;;;4.07;81.50;98892.16;4982609;28;20032;-68
2022/12/27 06:03:52;;;;;;;6.20;3.50;;;;;;;4.04;81.10;98895.34;5031927;28;20034;-67
2022/12/27 06:06:18;;;;;;;7.97;3.55;;;;;;;4.03;81.42;98902.63;5017575;28;20054;-67
2022/12/27 06:08:43;;;;;;;6.60;3.50;;;;;;;4.00;80.89;98905.84;5016885;28;20094;-67
2022/12/27 06:11:12;;;;;;;3.97;2.35;;;;;;;4.00;80.84;98922.97;5012095;28;20602;-67
2022/12/27 06:13:38;;;;;;;3.50;2.50;;;;;;;4.01;80.65;98923.78;5012257;28;20434;-67
2022/12/27 06:16:05;;;;;;;6.13;2.40;;;;;;;3.99;81.03;98936.75;5025357;28;20031;-67
2022/12/27 06:18:33;;;;;;;4.35;2.65;;;;;;;3.99;80.80;98925.91;4997338;28;20088;-67
2022/12/27 06:21:03;;;;;;;3.72;1.95;;;;;;;3.99;81.11;98932.16;4986349;28;20058;-67
2022/12/27 06:23:29;;;;;;;4.78;2.10;;;;;;;3.99;81.24;98944.91;5000077;28;20037;-68
2022/12/27 06:25:54;;;;;;;8.10;2.35;;;;;;;3.98;81.13;98952.22;5016315;28;20023;-67
2022/12/27 06:28:20;;;;;;;5.28;1.77;;;;;;;3.95;80.93;98946.44;4986242;28;20117;-68
2022/12/27 06:30:45;;;;;;;3.90;1.60;;;;;;;3.90;80.63;98949.88;5020721;28;20023;-68
2022/12/27 06:33:10;;;;;;;5.25;2.63;;;;;;;3.88;80.17;98952.81;5011489;28;20046;-67
2022/12/27 06:35:36;;;;;;;4.13;1.88;;;;;;;3.81;80.49;98964.88;4978536;28;20050;-67
2022/12/27 06:38:01;;;;;;;3.88;1.50;;;;;;;3.71;80.59;98970.94;5012549;28;20039;-67
2022/12/27 06:40:26;;;;;;;4.55;1.73;;;;;;;3.66;80.23;98984.38;5001420;28;20027;-67
2022/12/27 06:42:52;;;;;;;7.03;2.00;;;;;;;3.61;80.71;98995.97;4986565;28;20034;-67
2022/12/27 06:45:17;;;;;;;6.32;2.35;;;;;;;3.56;80.19;98985.81;5039833;28;20071;-66
2022/12/27 06:47:42;;;;;;;3.97;2.15;;;;;;;3.51;80.21;98996.53;4985973;28;20053;-66
2022/12/27 06:50:08;;;;;;;6.28;2.38;;;;;;;3.49;80.61;99009.50;5032022;28;20111;-67
2022/12/27 06:52:34;;;;;;;5.68;2.05;;;;;;;3.43;80.48;99013.19;4978807;28;20039;-67
2022/12/27 06:54:59;;;;;;;6.07;1.65;;;;;;;3.40;79.95;99019.06;5005827;28;20056;-66
2022/12/27 06:57:24;;;;;;;3.13;1.60;;;;;;;3.36;79.85;99026.03;5005817;28;20033;-67
2022/12/27 06:59:50;;;;;;;4.38;1.70;;;;;;;3.33;80.42;99032.72;4991602;28;20813;-67
2022/12/27 07:02:15;;;;;;;4.35;1.88;;;;;;;3.29;80.44;99034.25;4992015;28;20046;-67
2022/12/27 07:04:40;;;;;;;5.18;2.83;;;;;;;3.30;79.53;99043.22;5005149;28;20030;-68
2022/12/27 07:07:06;;;;;;;4.72;1.92;;;;;;;3.29;79.56;99039.66;4984967;28;20030;-68
2022/12/27 07:09:31;;;;;;;4.20;2.40;;;;;;;3.28;79.74;99043.44;4994540;28;20059;-67
2022/12/27 07:11:58;;;;;;;6.25;2.30;;;;;;;3.28;79.58;99067.84;4981096;28;20506;-67
2022/12/27 07:14:23;;;;;;;4.43;2.00;;;;;;;3.24;80.16;99056.66;4973363;28;20093;-68
2022/12/27 07:16:48;;;;;;;5.35;2.00;;;;;;;3.22;79.38;99060.66;4998074;28;20381;-68
2022/12/27 07:19:14;;;;;;;5.18;2.08;;;;;;;3.19;79.24;99056.53;5021316;28;20032;-67
2022/12/27 07:21:39;;;;;;;4.70;1.40;;;;;;;3.16;79.73;99054.28;4983350;28;20488;-67
2022/12/27 07:24:05;;;;;;;4.32;1.50;;;;;;;3.12;79.58;99051.22;5039969;28;20042;-67
2022/12/27 07:26:30;;;;;;;5.20;2.05;;;;;;;3.15;79.64;99078.91;5023543;28;20050;-66
2022/12/27 07:28:58;;;;;;;11.63;3.30;;;;;;;3.16;79.27;99094.13;5018817;28;20065;-67
2022/12/27 07:31:28;;;;;;;32.75;10.77;;;;;;;3.12;79.94;99089.16;4988549;28;20069;-68
2022/12/27 07:33:54;;;;;;;20.65;6.93;;;;;;;3.12;79.69;99115.41;4999240;28;20442;-68
2022/12/27 07:36:23;;;;;;;10.27;3.00;;;;;;;3.10;79.05;99118.38;5012370;28;20062;-68
2022/12/27 07:38:48;;;;;;;7.63;2.60;;;;;;;3.09;78.80;99115.88;5002846;28;20090;-68
2022/12/27 07:41:14;;;;;;;7.45;3.10;;;;;;;3.07;79.16;99116.13;5034833;28;20362;-67
2022/12/27 07:43:42;;;;;;;6.75;2.60;;;;;;;3.07;79.55;99126.13;5036205;28;20114;-66
2022/12/27 07:46:19;;;;;;;8.52;2.30;;;;;;;3.04;79.30;99129.31;4998643;28;20023;-70
2022/12/27 07:48:45;;;;;;;7.85;2.70;;;;;;;3.02;78.94;99121.41;4973813;28;20095;-69
2022/12/27 07:51:10;;;;;;;8.50;3.28;;;;;;;3.02;78.42;99139.56;5006159;28;20467;-69
2022/12/27 07:53:36;;;;;;;8.68;2.80;;;;;;;2.99;78.55;99138.13;4977913;28;20511;-69
2022/12/27 07:56:13;;;;;;;10.13;3.35;;;;;;;3.00;79.29;99147.09;5006872;28;20070;-68
2022/12/27 07:58:40;;;;;;;10.85;3.60;;;;;;;2.96;78.46;99152.13;4995656;28;20398;-69
2022/12/27 08:01:08;;;;;;;10.85;3.45;;;;;;;2.94;78.60;99157.78;4988048;28;20040;-69
2022/12/27 08:03:34;;;;;;;12.75;3.58;;;;;;;2.93;78.89;99158.84;4998136;28;20049;-69
2022/12/27 08:06:00;;;;;;;10.00;3.72;;;;;;;2.92;79.17;99156.34;4997541;28;20527;-68
2022/12/27 08:08:31;;;;;;;11.07;4.10;;;;;;;2.92;78.02;99168.03;5021186;28;20111;-69
2022/12/27 08:10:57;;;;;;;10.88;5.90;;;;;;;2.91;78.03;99169.09;4983025;28;20555;-69
2022/12/27 08:13:22;;;;;;;8.88;3.97;;;;;;;2.90;78.02;99170.13;5016681;28;20043;-68
2022/12/27 08:15:50;;;;;;;10.05;3.78;;;;;;;2.90;78.08;99178.28;5021701;28;20032;-69
2022/12/27 08:18:16;;;;;;;11.93;4.40;;;;;;;2.89;78.14;99182.03;5023340;28;20040;-69
2022/12/27 08:20:41;;;;;;;8.60;2.60;;;;;;;2.87;78.51;99181.44;5000246;28;20023;-68
2022/12/27 08:23:07;;;;;;;6.88;2.13;;;;;;;2.88;78.01;99179.53;5004623;28;20048;-69
2022/12/27 08:25:32;;;;;;;9.30;2.90;;;;;;;2.91;78.56;99187.22;4985368;28;20029;-69
2022/12/27 08:28:04;;;;;;;6.60;2.00;;;;;;;2.95;78.01;99188.41;5013180;28;20040;-70
2022/12/27 08:30:30;;;;;;;8.38;1.98;;;;;;;2.94;77.98;99209.28;5014919;28;20020;-70
2022/12/27 08:32:55;;;;;;;8.13;3.03;;;;;;;2.95;77.76;99193.84;4993347;28;20031;-70
2022/12/27 08:35:21;;;;;;;13.75;4.13;;;;;;;2.95;77.54;99208.22;5004417;28;20044;-69
2022/12/27 08:37:46;;;;;;;17.27;5.70;;;;;;;2.98;77.06;99204.22;4995004;28;20022;-68
2022/12/27 08:40:11;;;;;;;9.55;2.10;;;;;;;3.02;77.40;99199.19;4982465;28;20080;-71
2022/12/27 08:42:37;;;;;;;7.40;1.88;;;;;;;3.02;77.35;99205.41;4977961;28;20093;-70
2022/12/27 08:45:02;;;;;;;6.75;1.98;;;;;;;3.04;77.31;99206.03;5023658;28;20108;-69
2022/12/27 08:47:28;;;;;;;6.07;1.90;;;;;;;3.09;77.00;99213.44;4968031;28;20035;-70
2022/12/27 08:49:53;;;;;;;7.80;2.75;;;;;;;3.11;77.06;99204.06;4964003;28;20031;-72
2022/12/27 08:52:18;;;;;;;6.07;2.03;;;;;;;3.18;77.23;99205.84;4967673;28;20061;-72
2022/12/27 08:54:44;;;;;;;6.47;2.10;;;;;;;3.22;77.28;99215.19;4950398;28;20042;-69
2022/12/27 08:57:09;;;;;;;5.95;2.13;;;;;;;3.27;76.65;99223.44;4969708;28;20411;-71
2022/12/27 08:59:34;;;;;;;6.18;1.80;;;;;;;3.30;76.95;99227.59;4992156;28;20069;-70
2022/12/27 09:02:00;;;;;;;5.50;2.03;;;;;;;3.34;76.78;99223.34;4968533;28;20027;-72
2022/12/27 09:04:25;;;;;;;5.80;2.08;;;;;;;3.38;77.39;99221.84;4966363;28;20515;-69
2022/12/27 09:06:51;;;;;;;7.57;2.00;;;;;;;3.42;76.94;99228.47;4982438;28;20079;-70
2022/12/27 09:09:16;;;;;;;6.97;2.55;;;;;;;3.46;76.51;99231.53;4970667;28;20035;-69
2022/12/27 09:11:42;;;;;;;6.18;2.83;;;;;;;3.51;76.71;99234.38;4962410;28;20035;-69
2022/12/27 09:14:09;;;;;;;7.00;2.38;;;;;;;3.55;76.58;99239.09;4966020;28;20073;-68
2022/12/27 09:16:34;;;;;;;6.78;2.83;;;;;;;3.58;76.80;99227.78;4966112;28;20026;-68
2022/12/27 09:19:02;;;;;;;7.13;2.85;;;;;;;3.64;76.60;99241.50;4966668;28;20079;-68
2022/12/27 09:21:30;;;;;;;4.50;2.30;;;;;;;3.66;76.20;99234.81;4963829;28;20777;-69
2022/12/27 09:23:56;;;;;;;7.80;3.05;;;;;;;3.71;75.83;99234.91;4975796;28;20088;-69
2022/12/27 09:26:25;;;;;;;10.38;2.90;;;;;;;3.77;75.50;99235.88;5062161;28;20036;-70
2022/12/27 09:28:51;;;;;;;4.85;2.08;;;;;;;3.80;75.29;99240.00;4977260;28;20027;-69
2022/12/27 09:31:18;;;;;;;8.30;2.00;;;;;;;3.84;76.22;99239.31;4971420;28;20034;-69
2022/12/27 09:33:43;;;;;;;4.10;1.73;;;;;;;3.90;75.34;99239.44;5008466;28;20058;-69
2022/12/27 09:36:11;;;;;;;4.63;1.85;;;;;;;3.94;74.47;99232.47;4966339;28;20031;-69
2022/12/27 09:38:37;;;;;;;5.28;1.83;;;;;;;3.96;75.26;99241.22;4967170;28;20085;-69
2022/12/27 09:41:13;;;;;;;6.97;1.73;;;;;;;4.00;75.24;99236.97;4965450;28;20034;-69
2022/12/27 09:44:00;;;;;;;5.07;1.77;;;;;;;4.04;74.77;99235.44;4965580;28;20441;-69
2022/12/27 09:46:38;;;;;;;5.30;1.80;;;;;;;4.09;74.76;99232.03;4967286;28;20030;-69
2022/12/27 09:49:04;;;;;;;4.32;1.60;;;;;;;4.12;73.26;99234.25;4967290;28;20027;-69
2022/12/27 09:52:13;;;;;;;6.45;1.95;;;;;;;4.12;74.02;99235.09;4966341;28;20118;-69
2022/12/27 09:55:00;;;;;;;6.28;1.90;;;;;;;4.16;73.24;99230.03;4987841;28;20050;-68
2022/12/27 09:57:31;;;;;;;4.03;1.30;;;;;;;4.19;72.13;99228.75;4968438;28;20042;-70
2022/12/27 10:00:00;;;;;;;5.97;1.70;;;;;;;4.21;72.74;99226.63;4964873;28;20031;-71
2022/12/27 10:02:27;;;;;;;3.67;1.75;;;;;;;4.25;72.84;99231.34;4965698;28;20049;-70
2022/12/27 10:04:54;;;;;;;2.97;1.40;;;;;;;4.28;72.33;99228.16;4964979;28;20030;-70
2022/12/27 10:07:32;;;;;;;3.13;1.20;;;;;;;4.35;72.12;99227.22;4966918;28;20058;-70
2022/12/27 10:10:03;;;;;;;3.63;1.33;;;;;;;4.37;71.73;99220.47;4965756;28;20376;-69
2022/12/27 10:12:53;;;;;;;3.92;1.02;;;;;;;4.38;71.85;99216.69;4994903;28;20046;-68
2022/12/27 10:15:21;;;;;;;;;;;;;;;4.41;70.65;99227.06;4964055;28;20045;-69
2022/12/27 10:18:24;;;;;;;4.10;1.55;;;;;;;4.41;69.72;99220.84;4967156;28;20309;-70
2022/12/27 10:20:52;;;;;;;5.32;2.10;;;;;;;4.42;70.72;99219.78;4962006;28;20110;-69
2022/12/27 10:23:42;;;;;;;3.25;2.10;;;;;;;4.45;70.64;99219.31;4964928;28;20503;-67
2022/12/27 10:26:14;;;;;;;3.53;1.30;;;;;;;4.50;70.80;99234.88;4964632;28;20028;-67
2022/12/27 10:28:42;;;;;;;3.50;1.10;;;;;;;4.53;68.85;99227.06;4994787;28;20059;-65
2022/12/27 10:31:15;;;;;;;4.32;2.45;;;;;;;4.54;69.45;99226.00;4999791;28;20034;-68
2022/12/27 10:33:41;;;;;;;5.97;2.50;;;;;;;4.57;70.20;99230.16;4965099;28;20036;-68
2022/12/27 10:36:10;;;;;;;3.72;1.98;;;;;;;4.60;68.33;99235.13;4971926;28;20030;-68
2022/12/27 10:38:36;;;;;;;6.35;2.47;;;;;;;4.61;68.23;99244.91;4968081;28;20045;-68
2022/12/27 10:41:33;;;;;;;3.35;1.63;;;;;;;4.61;68.01;99234.84;4966270;28;20023;-68
2022/12/27 10:43:59;;;;;;;5.78;2.40;;;;;;;4.64;67.77;99244.44;4968701;28;20488;-67
2022/12/27 10:46:27;;;;;;;4.05;1.40;;;;;;;4.62;67.96;99236.50;5007862;28;20111;-68
2022/12/27 10:49:07;;;;;;;4.57;2.20;;;;;;;4.64;67.29;99240.88;5003713;28;20585;-67
2022/12/27 10:51:34;;;;;;;;;;;;;;;4.66;68.20;99239.59;5011996;28;20514;-66
2022/12/27 10:54:02;;;;;;;3.40;1.73;;;;;;;4.70;67.01;99237.22;5069957;28;19923;-66
2022/12/27 10:56:34;;;;;;;6.40;2.97;;;;;;;4.73;67.06;99237.56;5072281;28;20028;-67
2022/12/27 10:59:20;;;;;;;14.55;5.28;;;;;;;4.74;66.86;99231.06;5072433;28;20400;-66
2022/12/27 11:01:51;;;;;;;4.88;2.00;;;;;;;4.79;65.35;99235.78;5038338;28;20031;-66
2022/12/27 11:04:21;;;;;;;4.63;1.70;;;;;;;4.80;66.10;99231.16;4971152;28;20118;-66
2022/12/27 11:07:08;;;;;;;8.98;2.63;;;;;;;4.82;66.80;99229.03;4969940;28;20092;-66
2022/12/27 11:09:42;;;;;;;7.18;3.30;;;;;;;4.83;66.39;99234.25;4970145;28;20064;-67
2022/12/27 11:12:22;;;;;;;6.57;2.33;;;;;;;4.88;66.11;99234.38;4971442;28;20035;-67
2022/12/27 11:14:58;;;;;;;7.30;2.42;;;;;;;4.91;67.31;99235.78;4967554;28;20026;-66
2022/12/27 11:17:35;;;;;;;6.15;1.80;;;;;;;4.99;66.87;99231.84;4970183;28;20031;-67
2022/12/27 11:20:24;;;;;;;5.72;2.20;;;;;;;5.07;67.05;99224.16;4966544;28;20502;-67
2022/12/27 11:22:59;;;;;;;6.30;2.50;;;;;;;5.19;66.86;99234.16;4970177;28;20031;-68
2022/12/27 11:25:26;;;;;;;4.22;1.83;;;;;;;5.28;66.45;99231.88;4969791;28;20282;-70
2022/12/27 11:27:57;;;;;;;3.55;1.70;;;;;;;5.32;66.55;99235.75;4971620;28;20031;-68
2022/12/27 11:30:35;;;;;;;4.80;1.80;;;;;;;5.30;62.75;99227.84;4971339;28;20038;-68
2022/12/27 11:33:04;;;;;;;5.00;1.65;;;;;;;5.25;63.21;99225.03;5008712;28;20027;-69
2022/12/27 11:35:32;;;;;;;3.28;1.48;;;;;;;5.19;63.80;99228.72;5029506;28;20827;-67
2022/12/27 11:37:58;;;;;;;4.35;2.03;;;;;;;5.18;64.82;99227.06;4970657;28;20046;-68
2022/12/27 11:40:33;;;;;;;4.45;1.70;;;;;;;5.18;63.80;99224.34;4971516;28;20027;-69
2022/12/27 11:43:12;;;;;;;4.15;1.70;;;;;;;5.20;63.17;99228.47;4970359;28;20749;-68
2022/12/27 11:45:43;;;;;;;2.78;1.38;;;;;;;5.25;63.52;99224.22;4969674;28;20019;-69
2022/12/27 11:48:23;;;;;;;4.70;2.40;;;;;;;5.27;63.05;99231.03;4969322;28;20027;-68
2022/12/27 11:51:10;;;;;;;3.65;1.23;;;;;;;5.35;61.78;99244.28;4969866;28;20089;-69
2022/12/27 11:53:41;;;;;;;2.08;1.20;;;;;;;5.40;62.59;99248.16;4970797;28;20058;-69
2022/12/27 11:56:29;;;;;;;3.63;1.67;;;;;;;5.46;62.74;99255.34;4971807;28;20499;-69
2022/12/27 11:59:45;;;;;;;3.97;1.23;;;;;;;5.51;62.39;99245.38;4971782;28;20042;-70
2022/12/27 12:02:35;;;;;;;3.97;1.80;;;;;;;5.57;61.90;99242.75;4991185;28;20030;-67
2022/12/27 12:05:37;;;;;;;4.18;2.00;;;;;;;5.61;62.17;99244.75;4968305;28;20027;-68
2022/12/27 12:08:24;;;;;;;4.00;2.17;;;;;;;5.69;61.61;99242.69;4968780;28;20084;-69
2022/12/27 12:10:55;;;;;;;4.65;1.42;;;;;;;5.76;62.22;99237.94;4971080;28;20027;-69
2022/12/27 12:13:45;;;;;;;3.25;1.45;;;;;;;5.82;59.83;99243.22;4971358;28;20027;-68
2022/12/27 12:16:39;;;;;;;3.03;1.30;;;;;;;5.80;60.22;99253.50;4971047;28;20065;-67
2022/12/27 12:19:12;;;;;;;2.53;1.60;;;;;;;5.75;60.61;99242.53;4969180;28;20077;-68
2022/12/27 12:22:11;;;;;;;3.28;1.50;;;;;;;5.72;61.24;99251.19;4971179;28;20046;-68
2022/12/27 12:24:55;;;;;;;2.85;1.70;;;;;;;5.69;59.65;99246.25;4970912;28;20042;-68
2022/12/27 12:27:24;;;;;;;4.05;1.60;;;;;;;5.61;58.67;99239.28;4970831;28;20381;-67
2022/12/27 12:30:19;;;;;;;1.88;1.20;;;;;;;5.51;59.40;99239.09;4970538;28;20074;-68
2022/12/27 12:33:15;;;;;;;3.13;1.10;;;;;;;5.46;60.49;99245.28;4970836;28;20035;-67
2022/12/27 12:36:15;;;;;;;3.42;1.20;;;;;;;5.47;59.95;99236.06;4970673;28;20534;-68
2022/12/27 12:39:05;;;;;;;5.10;1.70;;;;;;;5.49;60.48;99227.66;4972781;28;20050;-68
2022/12/27 12:41:48;;;;;;;5.20;2.17;;;;;;;5.50;60.84;99232.84;4970408;28;20023;-68
2022/12/27 12:44:35;;;;;;;2.88;1.48;;;;;;;5.55;60.65;99234.00;4970750;28;20486;-69
2022/12/27 12:47:12;;;;;;;4.65;1.67;;;;;;;5.62;61.16;99240.13;4969622;28;20027;-69
2022/12/27 12:49:49;;;;;;;3.10;1.90;;;;;;;5.66;60.98;99241.31;4967602;28;20037;-69
2022/12/27 12:52:33;;;;;;;3.08;1.85;;;;;;;5.72;60.98;99240.31;4968746;28;20087;-69
2022/12/27 12:55:17;;;;;;;3.90;1.60;;;;;;;5.77;59.31;99239.59;4969933;28;20077;-69
2022/12/27 12:58:05;;;;;;;4.47;1.65;;;;;;;5.76;60.23;99243.38;4970553;28;20026;-68
2022/12/27 13:00:39;;;;;;;4.85;2.45;;;;;;;5.77;59.30;99251.28;4970058;28;20496;-69
2022/12/27 13:03:23;;;;;;;3.95;1.27;;;;;;;5.79;59.51;99245.59;4970453;28;20535;-69
2022/12/27 13:06:18;;;;;;;3.63;1.40;;;;;;;5.80;58.91;99248.06;4968629;28;20038;-69
2022/12/27 13:09:10;;;;;;;2.42;1.25;;;;;;;5.76;59.12;99243.38;4970776;28;20034;-69
2022/12/27 13:11:41;;;;;;;4.72;1.50;;;;;;;5.75;58.53;99244.44;4970652;28;20033;-69
2022/12/27 13:14:21;;;;;;;2.67;1.27;;;;;;;5.72;59.75;99242.22;4970575;28;20357;-69
2022/12/27 13:16:56;;;;;;;2.88;1.50;;;;;;;5.73;59.33;99249.31;4970510;28;20479;-67
2022/12/27 13:19:37;;;;;;;5.93;2.33;;;;;;;5.75;59.87;99258.06;4970593;28;20022;-67
2022/12/27 13:22:14;;;;;;;6.97;2.15;;;;;;;5.75;60.03;99249.88;4970502;28;20525;-68
2022/12/27 13:24:59;;;;;;;3.42;1.20;;;;;;;5.75;59.76;99249.88;4969267;28;20034;-67
2022/12/27 13:27:39;;;;;;;1.95;1.00;;;;;;;5.72;58.92;99253.91;4967266;28;20038;-68
2022/12/27 13:30:20;;;;;;;5.78;2.00;;;;;;;5.70;56.57;99252.50;4970010;28;20035;-67
2022/12/27 13:33:42;;;;;;;4.25;1.67;;;;;;;5.63;57.63;99264.38;4970973;28;20356;-68
2022/12/27 13:36:26;;;;;;;4.65;2.08;;;;;;;5.61;57.98;99260.25;4990357;28;20034;-69
2022/12/27 13:39:10;;;;;;;3.53;1.30;;;;;;;5.60;57.18;99269.50;5007008;28;20062;-69
2022/12/27 13:41:57;;;;;;;3.47;1.60;;;;;;;5.60;58.60;99286.63;4973632;28;20097;-69
2022/12/27 13:44:23;;;;;;;3.80;1.35;;;;;;;5.60;56.31;99264.84;4970348;28;20030;-69